• Join FlightAware (Why Join?)
  • Login
  • US Flag 
12:46PM EDT


 

Airport Tracker/Info


-or-


 

Live Flight TrackerFlight Track Log ✈ TRS426 ✈ 06-Jul-2013 ✈ KMEM - KATL

Flight Track Log - Related Links

Times and Time Zones

All times are in EDT time to prevent confusion due to time zone crossing. See the TRS426 flight status page for this flight to view local times or setup timezone preferences in your user account.

Time Position Orientation Groundspeed Altitude Reporting Facility
EDT Latitude Longitude Course Direction KTS MPH feet Rate Location/Type
12:24PM 35.0500 -89.9833 22° Northeast 183 211 1,000  Level KMEM
12:25PM 35.0833 -89.9667 22° Northeast 183 211 2,400 1,620 Climbing KMEM
12:26PM 35.1333 -89.9167 39° Northeast 245 282 3,900 1,800 Climbing KMEM
12:27PM 35.1833 -89.8500 47° Northeast 258 297 6,100 1,920 Climbing KMEM
12:28PM 35.1667 -89.7667 104° East 288 331 7,900 1,800 Climbing KMEM
12:30PM 35.1156 -89.6133 112° Southeast 311 358 11,000 1,980 Climbing Memphis Center
12:31PM 35.0650 -89.5225 124° Southeast 317 365 13,200 1,860 Climbing Memphis Center
12:32PM 35.0247 -89.4164 115° Southeast 334 384 14,800 1,620 Climbing Memphis Center
12:33PM 34.9736 -89.3003 118° Southeast 365 420 16,500 1,260 Climbing Memphis Center
12:34PM 34.9267 -89.1969 119° Southeast 380 437 17,400 1,200 Climbing Memphis Center
12:35PM 34.8919 -89.0533 106° East 419 482 18,900 1,380 Climbing Memphis Center
12:36PM 34.8633 -88.9069 103° East 440 506 20,200 1,320 Climbing Memphis Center
12:37PM 34.8383 -88.7531 101° East 453 521 21,600 1,200 Climbing Memphis Center
12:38PM 34.8111 -88.5992 102° East 459 528 22,600 1,200 Climbing Memphis Center
12:39PM 34.7817 -88.4331 102° East 459 528 24,000 1,200 Climbing Memphis Center
12:40PM 34.7561 -88.2767 101° East 464 534 25,000 480 Climbing Memphis Center
12:41PM 34.7283 -88.1108 101° East 477 549 25,000  Level Memphis Center
12:42PM 34.6981 -87.9550 103° East 482 555 25,000  Level Memphis Center
12:43PM 34.6719 -87.7964 101° East 482 555 25,000  Level Memphis Center
12:44PM 34.6458 -87.6408 101° East 481 554 25,000  Level Memphis Center
12:45PM 34.6153 -87.4903 104° East 465 535 25,000  Level Memphis Center
12:46PM 34.5747 -87.2528 102° East 497 572 25,000  Level Atlanta Center
12:47PM 34.5472 -87.0978 102° East 484 557 25,000 -120 Level Atlanta Center
12:48PM 34.5175 -86.9481 104° East 471 542 24,800 -540 Descending Atlanta Center
12:49PM 34.4831 -86.8108 107° East 444 511 24,000 -420 Descending Atlanta Center
12:50PM 34.4142 -86.7203 133° Southeast 384 442 24,000  Level Atlanta Center
12:51PM 34.3686 -86.6083 116° Southeast 379 436 24,000  Level Atlanta Center
12:52PM 34.3483 -86.4742 100° East 372 428 24,000  Level Atlanta Center
12:53PM 34.3319 -86.3456 99° East 378 435 24,000  Level Atlanta Center
12:54PM 34.3156 -86.2167 99° East 384 442 24,000  Level Atlanta Center
12:55PM 34.2803 -86.0850 108° East 391 450 24,000  Level Atlanta Center
12:56PM 34.2386 -85.9458 110° East 411 473 24,000 -300 Level Atlanta Center
12:57PM 34.1906 -85.8067 113° Southeast 435 501 23,500 -1,680 Descending Atlanta Center
12:58PM 34.1486 -85.6728 111° Southeast 435 501 20,700 -2,520 Descending Atlanta Center
12:59PM 34.1106 -85.5542 111° Southeast 428 493 18,500 -2,340 Descending Atlanta Center
01:00PM 34.0661 -85.4281 113° Southeast 415 478 16,100 -2,400 Descending Atlanta Center
01:01PM 34.0278 -85.3072 111° Southeast 396 456 13,700 -1,860 Descending Atlanta Center
01:02PM 33.9914 -85.1914 111° Southeast 377 434 12,400 -900 Descending Atlanta Center
01:03PM 33.9547 -85.0956 115° Southeast 334 384 11,900 -840 Descending Atlanta Center
01:04PM 33.9156 -85.0100 119° Southeast 297 342 10,800 -1,200 Descending Atlanta Center
01:05PM 33.8681 -84.9419 130° Southeast 273 314 9,500 -1,020 Descending Atlanta Center
01:06PM 33.7931 -84.9236 169° South 255 293 8,800 -1,020 Descending Atlanta Center
01:07PM 33.7222 -84.9231 180° South 260 299 7,500 -900 Descending Atlanta Center
01:08PM 33.6428 -84.9222 179° South 255 293 7,000 -240 Descending Atlanta Center
01:09PM 33.6333 -84.8333 97° East 233 268 7,000 -660 Level Atlanta TRACON
01:10PM 33.6333 -84.7500 90° East 236 272 5,600 -1,200 Descending Atlanta TRACON
01:11PM 33.6333 -84.6667 90° East 225 259 4,700 -1,140 Descending Atlanta TRACON
01:12PM 33.6333 -84.6000 90° East 217 250 3,500 -1,260 Descending Atlanta TRACON
01:13PM 33.6333 -84.5333 90° East 208 239 2,400 -960 Descending Atlanta TRACON
01:14PM 33.6333 -84.4833 90° East 146 168 1,600 -840 Descending Atlanta TRACON
01:16PM 33.6367 -84.4279 90° East  Level Estimated
01:23PM 33.6367 -84.4279 90° East  Level Estimated